createdAt,value
2024-05-09T00:01:47.014Z,5.70
2024-05-09T00:04:16.966Z,5.30
2024-05-09T00:06:49.542Z,5.70
2024-05-09T00:09:19.356Z,5.10
2024-05-09T00:11:49.301Z,5.20
2024-05-09T00:14:19.302Z,4.80
2024-05-09T00:16:49.657Z,4.90
2024-05-09T00:19:19.777Z,4.70
2024-05-09T00:21:52.479Z,4.90
2024-05-09T00:24:22.387Z,4.47
2024-05-09T00:26:52.276Z,4.90
2024-05-09T00:29:22.301Z,4.60
2024-05-09T00:31:52.318Z,4.97
2024-05-09T00:34:22.351Z,4.97
2024-05-09T00:36:54.943Z,4.87
2024-05-09T00:39:24.793Z,5.07
2024-05-09T00:41:54.667Z,4.83
2024-05-09T00:44:24.726Z,5.00
2024-05-09T00:46:56.295Z,5.30
2024-05-09T00:49:26.996Z,5.30
2024-05-09T00:52:00.423Z,5.10
2024-05-09T00:54:30.991Z,4.83
2024-05-09T00:57:00.899Z,5.03
2024-05-09T00:59:32.605Z,5.23
2024-05-09T01:02:03.368Z,4.67
2024-05-09T01:04:33.383Z,4.90
2024-05-09T01:07:06.053Z,5.07
2024-05-09T01:09:36.005Z,5.37
2024-05-09T01:12:06.182Z,5.33
2024-05-09T01:14:39.612Z,4.30
2024-05-09T01:17:09.914Z,5.53
2024-05-09T01:19:40.119Z,5.00
2024-05-09T01:22:12.695Z,5.50
2024-05-09T01:24:45.209Z,4.80
2024-05-09T01:27:15.093Z,4.70
2024-05-09T01:29:44.921Z,4.47
2024-05-09T01:32:14.929Z,4.40
2024-05-09T01:34:44.994Z,4.73
2024-05-09T01:37:14.824Z,4.50
2024-05-09T01:39:47.299Z,4.80
2024-05-09T01:42:17.611Z,4.40
2024-05-09T01:44:47.537Z,4.00
2024-05-09T01:47:17.521Z,4.30
2024-05-09T01:49:47.495Z,4.43
2024-05-09T01:52:17.421Z,4.70
2024-05-09T01:54:49.946Z,4.73
2024-05-09T01:57:19.823Z,4.77
2024-05-09T01:59:49.679Z,4.77
2024-05-09T02:02:19.698Z,5.03
2024-05-09T02:04:50.411Z,4.93
2024-05-09T02:07:20.671Z,4.67
2024-05-09T02:09:54.514Z,4.87
2024-05-09T02:12:24.564Z,4.53
2024-05-09T02:14:54.698Z,4.37
2024-05-09T02:17:24.725Z,4.70
2024-05-09T02:19:54.752Z,4.50
2024-05-09T02:22:24.647Z,4.53
2024-05-09T02:24:57.240Z,4.83
2024-05-09T02:27:27.152Z,4.60
2024-05-09T02:29:57.142Z,4.90
2024-05-09T02:32:27.106Z,5.10
2024-05-09T02:34:57.163Z,5.07
2024-05-09T02:37:27.089Z,5.40
2024-05-09T02:39:57.056Z,4.93
2024-05-09T02:42:26.921Z,5.50
2024-05-09T02:44:54.299Z,5.20
2024-05-09T02:47:24.348Z,5.07
2024-05-09T02:49:51.754Z,5.53
2024-05-09T02:52:21.932Z,5.00
2024-05-09T02:54:49.267Z,5.03
2024-05-09T02:57:21.738Z,4.83
2024-05-09T02:59:49.024Z,5.17
2024-05-09T03:02:19.032Z,5.30
2024-05-09T03:04:46.451Z,5.27
2024-05-09T03:07:17.868Z,5.30
2024-05-09T03:09:46.969Z,5.00
2024-05-09T03:12:16.906Z,5.00
2024-05-09T03:14:49.672Z,5.30
2024-05-09T03:17:19.598Z,5.90
2024-05-09T03:19:47.001Z,5.90
2024-05-09T03:22:16.856Z,5.83
2024-05-09T03:24:44.117Z,6.00
2024-05-09T03:27:13.943Z,6.60
2024-05-09T03:29:41.175Z,8.93
2024-05-09T03:32:13.952Z,13.50
2024-05-09T03:34:41.334Z,12.93
2024-05-09T03:37:11.141Z,11.40
2024-05-09T03:39:41.045Z,13.90
2024-05-09T03:42:10.934Z,14.67
2024-05-09T03:44:39.013Z,17.77
2024-05-09T03:47:08.947Z,18.17
2024-05-09T03:49:38.891Z,18.53
2024-05-09T03:52:09.294Z,17.90
2024-05-09T03:54:36.526Z,18.43
2024-05-09T03:57:06.848Z,18.77
2024-05-09T03:59:34.220Z,19.17
2024-05-09T04:02:06.502Z,19.77
2024-05-09T04:04:34.152Z,20.03
2024-05-09T04:07:06.918Z,20.50
2024-05-09T04:09:34.309Z,20.03
2024-05-09T04:12:04.291Z,21.70
2024-05-09T04:14:31.809Z,21.47
2024-05-09T04:17:01.808Z,21.33
2024-05-09T04:19:29.174Z,21.43
2024-05-09T04:21:59.018Z,20.37
2024-05-09T04:24:29.054Z,20.93
2024-05-09T04:26:58.915Z,20.33
2024-05-09T04:29:26.260Z,20.13
2024-05-09T04:31:56.264Z,20.27
2024-05-09T04:34:23.650Z,19.53
2024-05-09T04:36:54.837Z,19.33
2024-05-09T04:39:22.224Z,19.33
2024-05-09T04:41:54.746Z,20.13
2024-05-09T04:44:22.182Z,17.80
2024-05-09T04:46:52.054Z,17.70
2024-05-09T04:49:19.611Z,17.67
2024-05-09T04:51:49.684Z,17.70
2024-05-09T04:54:26.460Z,16.00
2024-05-09T04:57:06.796Z,15.00
2024-05-09T04:59:34.264Z,15.60
2024-05-09T05:02:04.305Z,15.33
2024-05-09T05:04:31.712Z,14.27
2024-05-09T05:07:02.811Z,14.33
2024-05-09T05:09:30.570Z,13.73
2024-05-09T05:12:02.949Z,13.63
2024-05-09T05:14:33.058Z,12.67
2024-05-09T05:17:03.055Z,13.40
2024-05-09T05:19:30.623Z,12.47
2024-05-09T05:22:00.701Z,12.90
2024-05-09T05:24:27.946Z,12.37
2024-05-09T05:26:57.747Z,12.43
2024-05-09T05:29:25.082Z,12.03
2024-05-09T05:31:57.802Z,12.53
2024-05-09T05:34:25.114Z,11.93
2024-05-09T05:36:54.937Z,11.17
2024-05-09T05:39:24.845Z,11.20
2024-05-09T05:41:52.108Z,10.83
2024-05-09T05:44:22.039Z,11.10
2024-05-09T05:46:49.358Z,10.93
2024-05-09T05:49:21.885Z,10.23
2024-05-09T05:51:49.354Z,10.10
2024-05-09T05:54:19.152Z,10.60
2024-05-09T05:56:46.424Z,9.60
2024-05-09T05:59:16.444Z,9.97
2024-05-09T06:01:43.681Z,10.47
2024-05-09T06:04:13.649Z,9.47
2024-05-09T06:06:43.599Z,9.57
2024-05-09T06:09:13.493Z,9.17
2024-05-09T06:11:41.319Z,8.70
2024-05-09T06:14:11.884Z,9.60
2024-05-09T06:16:39.161Z,9.33
2024-05-09T06:19:09.075Z,8.80
2024-05-09T06:21:36.480Z,9.63
2024-05-09T06:24:09.072Z,9.30
2024-05-09T06:26:36.417Z,9.07
2024-05-09T06:29:06.437Z,9.23
2024-05-09T06:31:33.819Z,9.50
2024-05-09T06:34:04.413Z,9.03
2024-05-09T06:36:31.787Z,9.40
2024-05-09T06:39:01.592Z,9.73
2024-05-09T06:41:31.573Z,9.60
2024-05-09T06:44:01.579Z,10.60
2024-05-09T06:46:29.512Z,10.40
2024-05-09T06:49:04.375Z,10.90
2024-05-09T06:51:31.811Z,9.40
2024-05-09T06:54:01.610Z,10.57
2024-05-09T06:56:31.649Z,9.67
2024-05-09T06:59:01.647Z,9.30
2024-05-09T07:01:29.047Z,9.90
2024-05-09T07:03:59.177Z,9.43
2024-05-09T07:06:26.555Z,9.80
2024-05-09T07:08:56.439Z,9.90
2024-05-09T07:11:23.930Z,9.37
2024-05-09T07:13:56.607Z,9.17
2024-05-09T07:16:23.986Z,9.10
2024-05-09T07:18:55.191Z,8.60
2024-05-09T07:21:22.574Z,9.07
2024-05-09T07:23:52.525Z,8.50
2024-05-09T07:26:19.862Z,8.23
2024-05-09T07:28:49.767Z,8.57
2024-05-09T07:31:20.170Z,8.43
2024-05-09T07:33:50.040Z,7.67
2024-05-09T07:36:17.389Z,6.90
2024-05-09T07:38:47.305Z,7.07
2024-05-09T07:41:14.785Z,7.50
2024-05-09T07:43:44.666Z,7.00
2024-05-09T07:47:13.723Z,7.27
2024-05-09T07:53:14.358Z,6.70
2024-05-09T07:54:29.577Z,7.17
2024-05-09T07:56:57.185Z,6.97
2024-05-09T07:59:27.198Z,7.17
2024-05-09T08:01:54.530Z,5.93
2024-05-09T08:04:27.172Z,6.40
2024-05-09T08:06:54.574Z,6.27
2024-05-09T08:09:24.501Z,5.93
2024-05-09T08:11:52.822Z,5.53
2024-05-09T08:14:22.693Z,6.10
2024-05-09T08:16:50.173Z,5.57
2024-05-09T08:19:20.272Z,5.30
2024-05-09T08:21:50.343Z,5.67
2024-05-09T08:24:20.205Z,5.67
2024-05-09T08:26:47.522Z,5.03
2024-05-09T08:29:17.452Z,5.47
2024-05-09T08:31:44.809Z,5.23
2024-05-09T08:34:14.910Z,5.00
2024-05-09T08:36:42.444Z,4.83
2024-05-09T08:39:14.914Z,4.60
2024-05-09T08:41:42.823Z,5.07
2024-05-09T08:44:12.676Z,4.90
2024-05-09T08:46:41.766Z,4.50
2024-05-09T08:49:12.807Z,4.47
2024-05-09T08:51:40.198Z,3.97
2024-05-09T08:54:10.103Z,4.50
2024-05-09T08:56:45.313Z,4.10
2024-05-09T08:59:23.264Z,4.68
2024-05-09T09:01:51.116Z,4.00
2024-05-09T09:04:21.570Z,3.83
2024-05-09T09:06:52.005Z,3.93
2024-05-09T09:09:23.326Z,3.90
2024-05-09T09:11:53.319Z,3.83
2024-05-09T09:14:23.158Z,4.00
2024-05-09T09:16:51.836Z,4.00
2024-05-09T09:19:21.873Z,4.00
2024-05-09T09:21:49.254Z,3.87
2024-05-09T09:24:19.109Z,3.13
2024-05-09T09:26:46.388Z,3.10
2024-05-09T09:29:22.545Z,3.07
2024-05-09T09:31:58.350Z,3.00
2024-05-09T09:34:31.192Z,3.10
2024-05-09T09:37:05.064Z,3.40
2024-05-09T09:39:35.990Z,3.60
2024-05-09T09:42:04.452Z,3.10
2024-05-09T09:44:39.585Z,3.40
2024-05-09T09:47:09.684Z,3.63
2024-05-09T09:49:40.267Z,3.50
2024-05-09T09:52:11.024Z,3.70
2024-05-09T09:54:41.920Z,3.73
2024-05-09T09:57:09.201Z,3.90
2024-05-09T09:59:43.826Z,4.13
2024-05-09T10:02:11.296Z,4.10
2024-05-09T10:04:41.477Z,4.13
2024-05-09T10:07:10.721Z,4.10
2024-05-09T10:09:40.740Z,3.60
2024-05-09T10:12:13.656Z,3.90
2024-05-09T10:14:50.998Z,4.20
2024-05-09T10:17:18.343Z,4.13
2024-05-09T10:19:48.769Z,4.47
2024-05-09T10:22:26.788Z,4.90
2024-05-09T10:24:57.557Z,4.60
2024-05-09T10:27:29.337Z,4.30
2024-05-09T10:30:06.878Z,3.73
2024-05-09T10:32:39.848Z,4.43
2024-05-09T10:35:11.711Z,4.40
2024-05-09T10:37:39.438Z,4.43
2024-05-09T10:40:14.379Z,4.10
2024-05-09T10:42:48.220Z,4.70
2024-05-09T10:45:21.537Z,4.90
2024-05-09T10:47:48.920Z,4.77
2024-05-09T10:50:25.662Z,4.80
2024-05-09T10:52:56.302Z,4.67
2024-05-09T10:55:26.243Z,4.40
2024-05-09T10:57:53.747Z,4.77
2024-05-09T11:00:36.019Z,4.50
2024-05-09T11:03:04.470Z,4.53
2024-05-09T11:05:34.900Z,4.73
2024-05-09T11:08:02.488Z,4.57
2024-05-09T11:10:34.367Z,4.63
2024-05-09T11:13:02.087Z,4.27
2024-05-09T11:15:43.199Z,4.57
2024-05-09T11:18:24.650Z,4.50
2024-05-09T11:20:56.323Z,4.60
2024-05-09T11:23:26.214Z,4.33
2024-05-09T11:25:57.507Z,3.73
2024-05-09T11:28:26.982Z,4.10
2024-05-09T11:31:09.666Z,3.63
2024-05-09T11:33:38.341Z,3.80
2024-05-09T11:36:09.339Z,3.73
2024-05-09T11:38:36.847Z,3.90
2024-05-09T11:41:07.693Z,3.47
2024-05-09T11:43:35.078Z,3.13
2024-05-09T11:46:07.915Z,3.67
2024-05-09T11:48:35.425Z,2.93
2024-05-09T11:51:05.389Z,3.23
2024-05-09T11:53:32.766Z,2.83
2024-05-09T11:56:02.827Z,3.13
2024-05-09T11:58:34.385Z,2.80
2024-05-09T12:01:07.214Z,3.03
2024-05-09T12:03:35.280Z,3.17
2024-05-09T12:06:05.464Z,3.20
2024-05-09T12:08:33.096Z,3.07
2024-05-09T12:11:03.296Z,3.13
2024-05-09T12:13:30.749Z,3.30
2024-05-09T12:16:00.833Z,3.00
2024-05-09T12:18:31.576Z,3.50
2024-05-09T12:21:01.458Z,3.43
2024-05-09T12:23:28.703Z,3.23
2024-05-09T12:25:58.582Z,3.60
2024-05-09T12:28:26.585Z,3.73
2024-05-09T12:30:56.482Z,3.23
2024-05-09T12:33:23.942Z,3.53
2024-05-09T12:35:56.519Z,3.60
2024-05-09T12:38:23.891Z,3.87
2024-05-09T12:40:54.175Z,3.60
2024-05-09T12:43:21.791Z,3.60
2024-05-09T12:45:51.812Z,3.57
2024-05-09T12:48:19.349Z,4.27
2024-05-09T12:50:49.381Z,4.70
2024-05-09T12:53:19.367Z,5.17
2024-05-09T12:55:56.601Z,4.20
2024-05-09T12:58:27.793Z,3.70
2024-05-09T13:00:57.783Z,3.73
2024-05-09T13:03:25.270Z,4.50
2024-05-09T13:05:55.324Z,4.20
2024-05-09T13:08:25.306Z,10.40
2024-05-09T13:10:55.343Z,6.67
2024-05-09T13:13:22.823Z,4.40
2024-05-09T13:15:52.770Z,4.87
2024-05-09T13:18:20.140Z,4.57
2024-05-09T13:20:53.098Z,3.97
2024-05-09T13:23:20.334Z,4.33
2024-05-09T13:25:52.869Z,4.40
2024-05-09T13:28:21.119Z,4.40
2024-05-09T13:30:51.065Z,4.70
2024-05-09T13:33:18.609Z,5.17
2024-05-09T13:35:50.653Z,5.00
2024-05-09T13:38:21.559Z,4.73
2024-05-09T13:40:54.227Z,4.83
2024-05-09T13:43:23.241Z,4.60
2024-05-09T13:45:55.227Z,4.80
2024-05-09T13:48:22.679Z,4.40
2024-05-09T13:50:52.554Z,4.65
2024-05-09T13:53:19.799Z,5.30
2024-05-09T13:55:49.924Z,4.63
2024-05-09T13:58:19.929Z,5.27
2024-05-09T14:00:49.911Z,4.97
2024-05-09T14:03:19.746Z,4.93
2024-05-09T14:05:52.295Z,5.07
2024-05-09T14:08:22.642Z,4.83
2024-05-09T14:10:53.771Z,5.07
2024-05-09T14:13:23.868Z,4.83
2024-05-09T14:15:53.957Z,4.57
2024-05-09T14:18:21.458Z,4.77
2024-05-09T14:20:51.335Z,4.73
2024-05-09T14:23:18.738Z,4.90
2024-05-09T14:25:52.078Z,4.50
2024-05-09T14:28:31.625Z,4.20
2024-05-09T14:31:01.298Z,4.90
2024-05-09T14:33:31.533Z,5.20
2024-05-09T14:35:59.156Z,5.20
2024-05-09T14:38:30.357Z,5.30
2024-05-09T14:40:58.071Z,5.03
2024-05-09T14:43:28.329Z,4.97
2024-05-09T14:45:58.445Z,5.10
2024-05-09T14:48:28.438Z,8.77
2024-05-09T14:50:55.697Z,5.03
2024-05-09T14:53:27.159Z,5.87
2024-05-09T14:55:54.688Z,6.07
2024-05-09T14:58:24.777Z,5.50
2024-05-09T15:00:52.532Z,7.97
2024-05-09T15:03:25.186Z,6.23
2024-05-09T15:05:52.738Z,7.40
2024-05-09T15:08:23.216Z,6.13
2024-05-09T15:10:50.924Z,6.13
2024-05-09T15:13:21.353Z,5.63
2024-05-09T15:15:50.003Z,6.30
2024-05-09T15:18:20.409Z,6.37
2024-05-09T15:20:50.628Z,6.40
2024-05-09T15:23:20.706Z,6.57
2024-05-09T15:25:48.081Z,7.10
2024-05-09T15:28:18.619Z,7.00
2024-05-09T15:30:46.986Z,7.93
2024-05-09T15:33:17.453Z,7.70
2024-05-09T15:35:46.800Z,7.47
2024-05-09T15:38:19.917Z,7.83
2024-05-09T15:40:47.429Z,7.93
2024-05-09T15:43:17.435Z,7.00
2024-05-09T15:45:45.078Z,8.03
2024-05-09T15:48:15.180Z,7.30
2024-05-09T15:50:43.249Z,7.77
2024-05-09T15:53:14.222Z,7.33
2024-05-09T15:55:44.139Z,8.23
2024-05-09T15:58:14.484Z,7.57
2024-05-09T16:00:44.156Z,6.90
2024-05-09T16:03:16.187Z,8.47
2024-05-09T16:05:44.756Z,7.37
2024-05-09T16:08:15.614Z,7.47
2024-05-09T16:10:47.385Z,7.23
2024-05-09T16:13:19.774Z,7.80
2024-05-09T16:15:47.573Z,9.00
2024-05-09T16:18:17.826Z,9.50
2024-05-09T16:20:48.266Z,8.33
2024-05-09T16:23:20.107Z,8.70
2024-05-09T16:25:51.512Z,8.97
2024-05-09T16:28:23.046Z,9.17
2024-05-09T16:30:51.876Z,9.37
2024-05-09T16:33:23.881Z,9.57
2024-05-09T16:35:51.715Z,9.77
2024-05-09T16:38:22.014Z,8.73
2024-05-09T16:40:52.096Z,9.27
2024-05-09T16:43:22.576Z,10.23
2024-05-09T16:45:51.143Z,9.73
2024-05-09T16:48:21.432Z,10.97
2024-05-09T16:50:49.307Z,11.03
2024-05-09T16:53:19.173Z,11.33
2024-05-09T16:55:46.522Z,11.07
2024-05-09T16:58:19.606Z,12.07
2024-05-09T17:00:47.094Z,11.57
2024-05-09T17:03:18.243Z,11.07
2024-05-09T17:05:47.269Z,12.90
2024-05-09T17:08:18.523Z,12.57
2024-05-09T17:10:47.575Z,12.73
2024-05-09T17:13:20.901Z,13.57
2024-05-09T17:15:51.406Z,12.97
2024-05-09T17:18:21.730Z,12.30
2024-05-09T17:20:50.341Z,12.97
2024-05-09T17:23:20.329Z,13.00
2024-05-09T17:25:47.714Z,13.17
2024-05-09T17:28:20.662Z,13.87
2024-05-09T17:30:48.657Z,13.87
2024-05-09T17:33:18.701Z,13.70
2024-05-09T17:35:50.235Z,14.27
2024-05-09T17:38:22.912Z,13.77
2024-05-09T17:40:50.975Z,13.40
2024-05-09T17:43:23.898Z,14.63
2024-05-09T17:45:51.366Z,14.20
2024-05-09T17:48:21.741Z,14.60
2024-05-09T17:50:49.185Z,14.67
2024-05-09T17:53:20.171Z,14.43
2024-05-09T17:55:48.785Z,14.93
2024-05-09T17:58:18.975Z,15.40
2024-05-09T18:00:48.965Z,15.13
2024-05-09T18:03:19.044Z,14.87
2024-05-09T18:05:46.521Z,15.50
2024-05-09T18:08:16.621Z,15.77
2024-05-09T18:10:46.625Z,15.83
2024-05-09T18:13:14.331Z,15.13
2024-05-09T18:15:45.254Z,16.70
2024-05-09T18:18:15.743Z,17.00
2024-05-09T18:20:46.468Z,17.60
2024-05-09T18:23:16.468Z,17.03
2024-05-09T18:25:48.366Z,16.40
2024-05-09T18:28:16.718Z,17.70
2024-05-09T18:30:47.179Z,16.90
2024-05-09T18:33:17.423Z,16.50
2024-05-09T18:35:47.845Z,17.37
2024-05-09T18:38:15.260Z,17.63
2024-05-09T18:40:48.345Z,17.13
2024-05-09T18:43:17.156Z,16.67
2024-05-09T18:45:47.686Z,18.23
2024-05-09T18:48:17.836Z,17.77
2024-05-09T18:50:48.190Z,18.53
2024-05-09T18:53:16.188Z,18.07
2024-05-09T18:55:46.043Z,17.00
2024-05-09T18:58:13.460Z,17.93
2024-05-09T19:00:46.015Z,17.60
2024-05-09T19:03:18.651Z,17.43
2024-05-09T19:05:49.017Z,17.03
2024-05-09T19:08:16.339Z,17.07
2024-05-09T19:10:47.051Z,17.87
2024-05-09T19:13:15.023Z,17.63
2024-05-09T19:15:45.360Z,17.63
2024-05-09T19:18:14.116Z,18.00
2024-05-09T19:20:47.323Z,17.80
2024-05-09T19:23:14.741Z,16.87
2024-05-09T19:25:44.543Z,16.47
2024-05-09T19:28:11.843Z,16.63
2024-05-09T19:30:42.943Z,16.73
2024-05-09T19:33:12.803Z,17.23
2024-05-09T19:35:46.325Z,16.17
2024-05-09T19:38:13.703Z,16.33
2024-05-09T19:40:43.713Z,15.37
2024-05-09T19:43:11.330Z,15.87
2024-05-09T19:45:41.497Z,15.80
2024-05-09T19:48:09.126Z,15.33
2024-05-09T19:50:43.240Z,14.77
2024-05-09T19:53:14.960Z,14.20
2024-05-09T19:55:45.354Z,14.10
2024-05-09T19:58:13.241Z,14.03
2024-05-09T20:00:44.534Z,12.87
2024-05-09T20:03:15.250Z,12.50
2024-05-09T20:05:48.580Z,12.30
2024-05-09T20:08:18.701Z,12.20
2024-05-09T20:10:48.736Z,10.87
2024-05-09T20:13:16.106Z,10.97
2024-05-09T20:15:45.999Z,11.40
2024-05-09T20:18:13.527Z,10.77
2024-05-09T20:20:45.155Z,11.63
2024-05-09T20:23:13.715Z,11.03
2024-05-09T20:25:46.187Z,10.67
2024-05-09T20:28:13.609Z,10.97
2024-05-09T20:30:43.627Z,10.67
2024-05-09T20:33:12.417Z,10.80
2024-05-09T20:35:42.719Z,10.93
2024-05-09T20:38:10.070Z,11.80
2024-05-09T20:40:40.281Z,10.23
2024-05-09T20:43:11.031Z,10.57
2024-05-09T20:45:41.285Z,11.00
2024-05-09T20:48:09.457Z,10.80
2024-05-09T20:50:41.985Z,10.80
2024-05-09T20:53:11.388Z,10.93
2024-05-09T20:55:41.734Z,11.40
2024-05-09T20:58:12.201Z,10.53
2024-05-09T21:00:44.960Z,10.67
2024-05-09T21:03:16.128Z,10.30
2024-05-09T21:05:47.698Z,9.60
2024-05-09T21:08:15.666Z,10.17
2024-05-09T21:10:45.660Z,10.43
2024-05-09T21:13:15.650Z,10.53
2024-05-09T21:15:45.732Z,10.10
2024-05-09T21:18:13.090Z,10.37
2024-05-09T21:20:42.998Z,9.77
2024-05-09T21:23:10.439Z,9.10
2024-05-09T21:25:40.299Z,9.40
2024-05-09T21:28:07.857Z,9.30
2024-05-09T21:30:42.789Z,8.80
2024-05-09T21:33:12.773Z,9.07
2024-05-09T21:35:44.800Z,9.10
2024-05-09T21:38:14.138Z,9.30
2024-05-09T21:40:45.400Z,8.37
2024-05-09T21:43:12.998Z,9.37
2024-05-09T21:45:45.622Z,8.97
2024-05-09T21:48:13.513Z,8.93
2024-05-09T21:50:43.545Z,9.27
2024-05-09T21:53:11.856Z,9.53
2024-05-09T21:55:42.173Z,10.60
2024-05-09T21:58:10.542Z,10.03
2024-05-09T22:00:42.935Z,10.20
2024-05-09T22:03:13.812Z,10.70
2024-05-09T22:05:44.970Z,10.70
2024-05-09T22:08:13.070Z,11.30
2024-05-09T22:10:43.092Z,11.30
2024-05-09T22:13:10.500Z,11.90
2024-05-09T22:15:41.572Z,11.83
2024-05-09T22:18:10.248Z,11.43
2024-05-09T22:20:46.350Z,11.90
2024-05-09T22:23:15.152Z,12.20
2024-05-09T22:25:45.270Z,11.73
2024-05-09T22:28:14.450Z,11.90
2024-05-09T22:30:46.329Z,12.40
2024-05-09T22:33:15.180Z,11.43
2024-05-09T22:35:48.169Z,11.83
2024-05-09T22:38:15.539Z,12.30
2024-05-09T22:40:48.738Z,13.17
2024-05-09T22:43:19.813Z,12.07
2024-05-09T22:45:50.398Z,11.90
2024-05-09T22:48:18.350Z,12.50
2024-05-09T22:50:50.926Z,12.13
2024-05-09T22:53:18.521Z,12.87
2024-05-09T22:55:48.350Z,11.93
2024-05-09T22:58:15.815Z,12.67
2024-05-09T23:00:45.885Z,13.00
2024-05-09T23:03:15.824Z,12.40
2024-05-09T23:05:45.798Z,11.87
2024-05-09T23:08:15.652Z,12.70
2024-05-09T23:10:45.650Z,12.17
2024-05-09T23:13:13.296Z,11.63
2024-05-09T23:15:43.488Z,12.17
2024-05-09T23:18:11.371Z,11.57
2024-05-09T23:20:41.258Z,12.47
2024-05-09T23:23:10.165Z,12.30
2024-05-09T23:25:44.136Z,12.23
2024-05-09T23:28:11.702Z,12.30
2024-05-09T23:30:42.553Z,11.77
2024-05-09T23:33:11.317Z,12.40
2024-05-09T23:35:41.524Z,12.20
2024-05-09T23:38:08.800Z,11.67
2024-05-09T23:40:40.959Z,12.03
2024-05-09T23:43:12.905Z,11.77
2024-05-09T23:45:43.442Z,11.60
2024-05-09T23:48:11.247Z,11.03
2024-05-09T23:50:41.738Z,11.13
2024-05-09T23:53:10.141Z,10.77
2024-05-09T23:55:41.072Z,10.53
2024-05-09T23:58:08.799Z,10.90
